createdAt,value
2019-02-15T00:01:18.492Z,7.53
2019-02-15T00:03:22.686Z,9.13
2019-02-15T00:05:28.923Z,7.83
2019-02-15T00:07:33.409Z,9.43
2019-02-15T00:09:37.591Z,8.70
2019-02-15T00:11:41.894Z,9.07
2019-02-15T00:13:46.407Z,9.40
2019-02-15T00:15:50.663Z,8.50
2019-02-15T00:18:14.052Z,8.77
2019-02-15T00:20:26.758Z,8.13
2019-02-15T00:22:31.261Z,8.60
2019-02-15T00:24:37.599Z,9.10
2019-02-15T00:26:41.770Z,8.07
2019-02-15T00:28:46.095Z,8.03
2019-02-15T00:30:50.514Z,8.77
2019-02-15T00:32:54.868Z,7.87
2019-02-15T00:34:59.266Z,8.13
2019-02-15T00:37:03.812Z,9.63
2019-02-15T00:39:08.328Z,9.43
2019-02-15T00:41:12.757Z,8.77
2019-02-15T00:43:22.247Z,9.67
2019-02-15T00:45:26.637Z,8.60
2019-02-15T00:47:52.852Z,7.47
2019-02-15T00:50:11.343Z,7.93
2019-02-15T00:52:34.451Z,6.70
2019-02-15T00:55:00.118Z,7.20
2019-02-15T00:57:26.599Z,6.17
2019-02-15T00:59:56.064Z,6.60
2019-02-15T01:02:37.257Z,7.37
2019-02-15T01:05:00.904Z,7.10
2019-02-15T01:07:36.170Z,8.10
2019-02-15T01:09:48.314Z,6.73
2019-02-15T01:11:58.749Z,7.57
2019-02-15T01:14:02.835Z,7.40
2019-02-15T01:16:07.121Z,7.93
2019-02-15T01:18:11.516Z,8.13
2019-02-15T01:20:15.769Z,7.70
2019-02-15T01:22:20.459Z,7.43
2019-02-15T01:24:24.806Z,7.70
2019-02-15T01:26:47.884Z,7.67
2019-02-15T01:29:14.669Z,8.33
2019-02-15T01:31:40.853Z,8.07
2019-02-15T01:33:56.825Z,7.73
2019-02-15T01:36:28.734Z,7.97
2019-02-15T01:38:52.118Z,7.57
2019-02-15T01:41:18.926Z,7.10
2019-02-15T01:43:57.285Z,8.03
2019-02-15T01:46:09.951Z,7.57
2019-02-15T01:48:14.593Z,7.83
2019-02-15T01:50:18.876Z,6.77
2019-02-15T01:52:23.511Z,6.00
2019-02-15T01:54:27.958Z,6.33
2019-02-15T01:56:32.444Z,6.13
2019-02-15T01:58:36.850Z,6.70
2019-02-15T02:00:41.504Z,6.33
2019-02-15T02:02:46.394Z,6.53
2019-02-15T02:04:50.606Z,6.63
2019-02-15T02:06:55.351Z,6.57
2019-02-15T02:08:59.874Z,8.07
2019-02-15T02:11:04.339Z,6.70
2019-02-15T02:13:08.805Z,6.97
2019-02-15T02:15:13.753Z,7.63
2019-02-15T02:17:18.152Z,7.63
2019-02-15T02:19:22.692Z,7.03
2019-02-15T02:21:26.869Z,7.83
2019-02-15T02:23:31.404Z,7.33
2019-02-15T02:25:35.819Z,7.23
2019-02-15T02:27:40.293Z,7.93
2019-02-15T02:29:44.914Z,7.23
2019-02-15T02:31:49.381Z,7.07
2019-02-15T02:33:53.978Z,7.07
2019-02-15T02:35:59.133Z,6.37
2019-02-15T02:38:03.821Z,7.07
2019-02-15T02:40:08.351Z,6.60
2019-02-15T02:42:12.694Z,7.33
2019-02-15T02:44:16.886Z,7.43
2019-02-15T02:46:21.104Z,7.67
2019-02-15T02:48:27.520Z,7.43
2019-02-15T02:50:31.780Z,8.33
2019-02-15T02:52:36.168Z,7.30
2019-02-15T02:54:40.744Z,7.53
2019-02-15T02:56:45.027Z,7.80
2019-02-15T02:58:49.340Z,6.93
2019-02-15T03:00:53.936Z,7.40
2019-02-15T03:02:58.530Z,6.53
2019-02-15T03:05:06.218Z,7.27
2019-02-15T03:07:10.614Z,6.83
2019-02-15T03:09:17.720Z,7.73
2019-02-15T03:11:22.104Z,7.43
2019-02-15T03:13:26.507Z,7.33
2019-02-15T03:15:31.005Z,7.50
2019-02-15T03:17:35.609Z,7.00
2019-02-15T03:19:39.789Z,7.40
2019-02-15T03:21:43.995Z,7.30
2019-02-15T03:23:48.242Z,7.40
2019-02-15T03:25:52.615Z,7.57
2019-02-15T03:27:57.275Z,7.57
2019-02-15T03:30:01.714Z,7.60
2019-02-15T03:32:05.781Z,7.53
2019-02-15T03:34:09.897Z,6.60
2019-02-15T03:36:22.468Z,7.10
2019-02-15T03:38:35.241Z,7.37
2019-02-15T03:40:44.790Z,7.10
2019-02-15T03:42:51.010Z,7.23
2019-02-15T03:44:55.335Z,7.10
2019-02-15T03:46:59.585Z,7.57
2019-02-15T03:49:03.957Z,7.23
2019-02-15T03:51:08.175Z,7.03
2019-02-15T03:53:12.530Z,6.33
2019-02-15T03:55:20.077Z,6.27
2019-02-15T03:57:24.204Z,6.80
2019-02-15T03:59:28.571Z,6.43
2019-02-15T04:01:32.953Z,7.27
2019-02-15T04:03:37.311Z,6.67
2019-02-15T04:05:41.939Z,6.80
2019-02-15T04:07:46.483Z,6.83
2019-02-15T04:09:53.754Z,6.80
2019-02-15T04:11:58.210Z,6.37
2019-02-15T04:14:02.274Z,6.77
2019-02-15T04:16:06.595Z,6.77
2019-02-15T04:18:10.729Z,6.90
2019-02-15T04:20:15.124Z,7.67
2019-02-15T04:22:19.297Z,7.00
2019-02-15T04:24:24.308Z,6.63
2019-02-15T04:26:28.653Z,6.87
2019-02-15T04:28:33.007Z,7.23
2019-02-15T04:30:37.378Z,7.03
2019-02-15T04:32:41.712Z,7.87
2019-02-15T04:34:46.315Z,7.17
2019-02-15T04:36:50.651Z,7.07
2019-02-15T04:38:55.159Z,6.40
2019-02-15T04:40:59.967Z,6.83
2019-02-15T04:43:04.097Z,6.80
2019-02-15T04:45:08.647Z,7.20
2019-02-15T04:47:12.943Z,7.00
2019-02-15T04:49:17.284Z,7.07
2019-02-15T04:51:22.038Z,7.10
2019-02-15T04:53:26.380Z,6.53
2019-02-15T04:55:30.768Z,7.10
2019-02-15T04:57:34.972Z,6.93
2019-02-15T04:59:39.057Z,7.33
2019-02-15T05:01:43.432Z,7.40
2019-02-15T05:03:48.019Z,7.40
2019-02-15T05:05:52.555Z,7.20
2019-02-15T05:07:56.863Z,7.00
2019-02-15T05:10:01.098Z,7.30
2019-02-15T05:12:05.264Z,6.93
2019-02-15T05:14:09.647Z,5.83
2019-02-15T05:16:14.280Z,6.23
2019-02-15T05:18:19.041Z,7.07
2019-02-15T05:20:23.463Z,6.40
2019-02-15T05:22:28.042Z,6.57
2019-02-15T05:24:32.384Z,7.40
2019-02-15T05:26:36.730Z,8.17
2019-02-15T05:28:41.197Z,9.33
2019-02-15T05:30:45.479Z,8.37
2019-02-15T05:32:50.133Z,7.93
2019-02-15T05:34:54.519Z,8.77
2019-02-15T05:36:58.725Z,8.17
2019-02-15T05:39:03.142Z,8.03
2019-02-15T05:41:07.711Z,7.97
2019-02-15T05:43:14.952Z,8.50
2019-02-15T05:45:19.119Z,8.43
2019-02-15T05:47:23.508Z,8.50
2019-02-15T05:49:27.761Z,8.53
2019-02-15T05:51:34.511Z,7.57
2019-02-15T05:53:41.301Z,7.77
2019-02-15T05:55:45.848Z,7.57
2019-02-15T05:57:50.385Z,7.97
2019-02-15T05:59:54.567Z,7.37
2019-02-15T06:01:58.655Z,6.13
2019-02-15T06:04:03.375Z,6.93
2019-02-15T06:06:07.852Z,6.73
2019-02-15T06:08:12.337Z,6.83
2019-02-15T06:10:16.327Z,6.40
2019-02-15T06:12:20.504Z,6.67
2019-02-15T06:14:25.126Z,7.53
2019-02-15T06:16:29.680Z,7.37
2019-02-15T06:18:33.934Z,7.10
2019-02-15T06:20:40.714Z,7.30
2019-02-15T06:22:47.183Z,6.60
2019-02-15T06:24:51.593Z,6.80
2019-02-15T06:26:56.198Z,7.53
2019-02-15T06:29:00.810Z,7.27
2019-02-15T06:31:07.724Z,6.50
2019-02-15T06:33:12.882Z,6.67
2019-02-15T06:41:15.431Z,6.50
2019-02-15T06:43:34.134Z,6.90
2019-02-15T06:46:00.056Z,7.30
2019-02-15T06:48:12.611Z,6.50
2019-02-15T06:50:38.037Z,7.23
2019-02-15T06:53:10.010Z,7.83
2019-02-15T06:55:43.306Z,9.00
2019-02-15T06:57:49.138Z,8.00
2019-02-15T07:00:31.460Z,7.73
2019-02-15T07:02:55.360Z,7.97
2019-02-15T07:05:26.239Z,7.70
2019-02-15T07:07:37.318Z,7.00
2019-02-15T07:09:47.576Z,6.40
2019-02-15T07:11:59.172Z,6.87
2019-02-15T07:14:06.360Z,6.40
2019-02-15T07:16:15.830Z,6.67
2019-02-15T07:21:50.453Z,6.50
2019-02-15T07:24:10.049Z,6.80
2019-02-15T07:26:27.988Z,7.23
2019-02-15T07:28:41.562Z,8.27
2019-02-15T07:31:05.442Z,8.60
2019-02-15T07:39:01.285Z,8.07
2019-02-15T07:41:24.289Z,8.67
2019-02-15T07:57:13.125Z,7.47
2019-02-15T08:12:09.239Z,6.70
2019-02-15T08:25:58.113Z,5.77
2019-02-15T08:28:07.188Z,5.63
2019-02-15T08:30:21.979Z,6.87
2019-02-15T08:32:39.859Z,6.40
2019-02-15T08:34:52.132Z,6.97
2019-02-15T08:37:11.036Z,6.73
2019-02-15T08:39:31.285Z,6.23
2019-02-15T08:42:01.376Z,6.60
2019-02-15T08:44:10.583Z,6.60
2019-02-15T08:51:58.357Z,6.30
2019-02-15T08:54:26.875Z,6.63
2019-02-15T08:56:45.340Z,6.90
2019-02-15T08:58:54.730Z,7.40
2019-02-15T09:01:22.848Z,7.47
2019-02-15T09:03:31.512Z,6.80
2019-02-15T09:05:50.353Z,6.53
2019-02-15T09:08:19.150Z,6.90
2019-02-15T09:17:22.036Z,6.77
2019-02-15T09:19:46.477Z,6.80
2019-02-15T09:22:23.217Z,6.53
2019-02-15T09:25:12.443Z,6.37
2019-02-15T09:27:52.376Z,6.17
2019-02-15T09:31:50.031Z,6.60
2019-02-15T09:32:57.117Z,6.20
2019-02-15T09:35:28.317Z,6.03
2019-02-15T09:43:58.586Z,6.87
2019-02-15T09:46:57.181Z,6.62
2019-02-15T09:49:37.513Z,6.83
2019-02-15T09:52:11.047Z,6.67
2019-02-15T09:54:25.293Z,6.63
2019-02-15T09:56:47.204Z,6.63
2019-02-15T09:58:55.778Z,7.03
2019-02-15T10:01:23.402Z,7.10
2019-02-15T10:04:13.462Z,6.80
2019-02-15T10:09:10.301Z,6.97
2019-02-15T10:11:24.945Z,7.10
2019-02-15T10:13:44.120Z,7.53
2019-02-15T10:16:10.969Z,7.27
2019-02-15T10:18:30.657Z,6.83
2019-02-15T10:20:43.593Z,7.60
2019-02-15T10:22:56.733Z,8.13
2019-02-15T10:25:16.295Z,7.20
2019-02-15T10:27:41.459Z,7.97
2019-02-15T10:35:19.618Z,9.23
2019-02-15T10:37:50.294Z,8.43
2019-02-15T10:40:06.174Z,8.07
2019-02-15T10:42:11.244Z,8.57
2019-02-15T10:44:21.327Z,8.67
2019-02-15T10:46:26.958Z,8.53
2019-02-15T10:48:36.723Z,8.10
2019-02-15T10:50:51.404Z,8.37
2019-02-15T10:53:07.791Z,8.03
2019-02-15T10:55:18.244Z,9.10
2019-02-15T10:57:28.458Z,9.10
2019-02-15T10:59:44.262Z,8.83
2019-02-15T11:04:31.553Z,9.37
2019-02-15T11:06:52.867Z,9.08
2019-02-15T11:09:10.417Z,9.10
2019-02-15T11:11:26.942Z,8.48
2019-02-15T11:13:45.932Z,10.55
2019-02-15T11:16:07.781Z,9.05
2019-02-15T11:18:38.002Z,9.55
2019-02-15T11:20:47.595Z,9.33
2019-02-15T11:23:08.746Z,9.30
2019-02-15T11:30:53.700Z,8.17
2019-02-15T11:33:06.247Z,8.23
2019-02-15T11:35:11.647Z,7.70
2019-02-15T11:37:24.496Z,7.90
2019-02-15T11:39:41.115Z,8.80
2019-02-15T11:41:50.642Z,7.83
2019-02-15T11:43:59.546Z,8.50
2019-02-15T11:46:14.879Z,8.97
2019-02-15T11:48:35.952Z,7.97
2019-02-15T11:50:52.449Z,8.03
2019-02-15T11:52:59.286Z,8.27
2019-02-15T11:55:17.022Z,8.67
2019-02-15T11:57:38.664Z,7.77
2019-02-15T11:59:53.235Z,7.50
2019-02-15T12:02:15.513Z,7.80
2019-02-15T12:04:33.445Z,8.50
2019-02-15T12:06:55.076Z,7.80
2019-02-15T12:08:59.744Z,8.00
2019-02-15T12:11:14.284Z,7.83
2019-02-15T12:13:35.042Z,9.43
2019-02-15T12:15:43.020Z,8.47
2019-02-15T12:17:57.828Z,7.33
2019-02-15T12:25:59.038Z,7.30
2019-02-15T12:28:11.757Z,8.13
2019-02-15T12:30:20.837Z,8.07
2019-02-15T12:32:34.923Z,6.87
2019-02-15T12:34:48.889Z,7.80
2019-02-15T12:36:58.602Z,7.70
2019-02-15T12:39:16.419Z,7.27
2019-02-15T12:41:23.905Z,7.37
2019-02-15T12:43:59.094Z,6.43
2019-02-15T12:46:06.364Z,6.97
2019-02-15T12:50:42.663Z,7.77
2019-02-15T12:52:05.671Z,7.37
2019-02-15T12:54:28.727Z,7.17
2019-02-15T12:56:42.045Z,7.63
2019-02-15T12:58:49.505Z,7.50
2019-02-15T13:01:31.593Z,7.07
2019-02-15T13:03:57.527Z,6.00
2019-02-15T13:06:08.419Z,6.67
2019-02-15T13:08:33.729Z,6.63
2019-02-15T13:10:47.748Z,6.90
2019-02-15T13:13:05.352Z,7.23
2019-02-15T13:15:20.774Z,7.07
2019-02-15T13:17:48.323Z,6.80
2019-02-15T13:20:05.372Z,6.20
2019-02-15T13:22:20.259Z,6.90
2019-02-15T13:24:27.093Z,6.53
2019-02-15T13:26:54.831Z,6.27
2019-02-15T13:29:04.418Z,6.40
2019-02-15T13:31:24.136Z,6.47
2019-02-15T13:33:32.493Z,6.77
2019-02-15T13:41:16.870Z,6.93
2019-02-15T13:43:53.401Z,5.63
2019-02-15T13:46:17.153Z,5.03
2019-02-15T13:51:11.782Z,6.43
2019-02-15T13:53:22.105Z,6.10
2019-02-15T13:55:42.185Z,6.27
2019-02-15T13:57:48.568Z,5.30
2019-02-15T14:00:12.734Z,5.03
2019-02-15T14:02:20.199Z,5.70
2019-02-15T14:04:30.262Z,5.80
2019-02-15T14:06:51.633Z,5.53
2019-02-15T14:09:08.930Z,5.63
2019-02-15T14:37:11.383Z,5.80
2019-02-15T14:40:00.405Z,5.70
2019-02-15T14:45:53.992Z,5.80
2019-02-15T14:48:20.026Z,6.13
2019-02-15T14:51:04.118Z,6.40
2019-02-15T14:53:39.566Z,6.27
2019-02-15T14:59:45.318Z,6.23
2019-02-15T15:02:22.000Z,6.23
2019-02-15T15:04:51.775Z,6.70
2019-02-15T15:07:24.631Z,5.90
2019-02-15T15:12:28.115Z,6.43
2019-02-15T15:15:08.555Z,6.47
2019-02-15T15:18:59.740Z,6.77
2019-02-15T15:20:26.297Z,7.93
2019-02-15T15:37:16.756Z,7.00
2019-02-15T15:40:10.674Z,7.77
2019-02-15T15:43:06.971Z,7.40
2019-02-15T15:48:32.792Z,7.00
2019-02-15T16:10:26.234Z,8.60
2019-02-15T16:15:17.472Z,7.83
2019-02-15T16:17:23.910Z,9.00
2019-02-15T16:19:28.960Z,7.63
2019-02-15T16:21:33.839Z,8.77
2019-02-15T16:23:39.179Z,8.57
2019-02-15T16:25:44.401Z,9.70
2019-02-15T16:27:49.503Z,8.73
2019-02-15T16:29:54.237Z,9.43
2019-02-15T16:31:59.188Z,8.47
2019-02-15T16:34:05.767Z,8.53
2019-02-15T16:36:10.227Z,8.17
2019-02-15T16:38:14.995Z,8.93
2019-02-15T16:40:19.978Z,8.47
2019-02-15T16:42:24.445Z,8.37
2019-02-15T16:44:29.023Z,7.63
2019-02-15T16:46:33.948Z,9.17
2019-02-15T16:48:42.020Z,9.07
2019-02-15T16:50:44.533Z,8.63
2019-02-15T16:52:49.631Z,8.33
2019-02-15T16:54:57.693Z,8.90
2019-02-15T16:57:02.254Z,9.50
2019-02-15T16:59:06.779Z,10.43
2019-02-15T17:01:11.451Z,10.17
2019-02-15T17:03:16.242Z,10.73
2019-02-15T17:05:20.540Z,11.30
2019-02-15T17:07:25.622Z,10.47
2019-02-15T17:09:32.181Z,10.33
2019-02-15T17:11:36.877Z,10.30
2019-02-15T17:13:41.857Z,9.27
2019-02-15T17:15:46.879Z,10.07
2019-02-15T17:17:51.528Z,10.57
2019-02-15T17:19:56.695Z,10.07
2019-02-15T17:22:01.587Z,8.90
2019-02-15T17:24:06.260Z,8.73
2019-02-15T17:26:10.916Z,10.50
2019-02-15T17:28:15.976Z,9.77
2019-02-15T17:30:20.599Z,9.00
2019-02-15T17:32:25.108Z,9.10
2019-02-15T17:34:30.034Z,8.90
2019-02-15T17:36:34.736Z,8.43
2019-02-15T17:38:39.326Z,9.17
2019-02-15T17:40:43.729Z,9.17
2019-02-15T17:42:48.152Z,8.73
2019-02-15T17:44:52.689Z,8.63
2019-02-15T17:46:57.224Z,7.80
2019-02-15T17:49:03.366Z,9.27
2019-02-15T17:51:10.368Z,9.13
2019-02-15T17:53:15.501Z,10.07
2019-02-15T17:55:20.239Z,11.93
2019-02-15T17:57:26.208Z,9.90
2019-02-15T17:59:31.511Z,10.83
2019-02-15T18:01:36.210Z,9.87
2019-02-15T18:03:40.811Z,10.17
2019-02-15T18:05:45.118Z,10.43
2019-02-15T18:07:50.549Z,9.77
2019-02-15T18:09:55.082Z,10.17
2019-02-15T18:11:59.991Z,11.17
2019-02-15T18:14:04.500Z,11.03
2019-02-15T18:16:09.670Z,11.33
2019-02-15T18:18:14.436Z,11.57
2019-02-15T18:20:18.934Z,11.80
2019-02-15T18:22:25.782Z,12.03
2019-02-15T18:24:32.826Z,11.93
2019-02-15T18:26:37.878Z,12.53
2019-02-15T18:28:43.090Z,13.50
2019-02-15T18:30:47.486Z,13.83
2019-02-15T18:32:52.531Z,12.83
2019-02-15T18:35:00.398Z,14.30
2019-02-15T18:37:04.909Z,14.77
2019-02-15T18:39:10.118Z,14.27
2019-02-15T18:41:14.922Z,12.80
2019-02-15T18:43:19.610Z,12.70
2019-02-15T18:45:24.694Z,11.27
2019-02-15T18:47:29.698Z,11.20
2019-02-15T18:49:34.653Z,11.67
2019-02-15T18:51:42.507Z,10.90
2019-02-15T18:53:47.294Z,11.70
2019-02-15T18:55:51.915Z,11.67
2019-02-15T18:57:57.158Z,12.17
2019-02-15T19:00:02.014Z,9.47
2019-02-15T19:02:06.752Z,8.83
2019-02-15T19:04:11.853Z,9.60
2019-02-15T19:06:16.593Z,9.53
2019-02-15T19:08:23.295Z,10.70
2019-02-15T19:10:27.929Z,12.07
2019-02-15T19:12:32.534Z,11.23
2019-02-15T19:14:36.991Z,10.83
2019-02-15T19:16:42.243Z,10.80
2019-02-15T19:18:47.366Z,11.53
2019-02-15T19:20:52.250Z,12.50
2019-02-15T19:22:57.872Z,11.87
2019-02-15T19:25:03.199Z,14.67
2019-02-15T19:27:08.629Z,15.57
2019-02-15T19:29:13.794Z,16.27
2019-02-15T19:31:19.796Z,15.70
2019-02-15T19:33:25.093Z,17.17
2019-02-15T19:35:30.232Z,16.93
2019-02-15T19:37:35.480Z,18.47
2019-02-15T19:39:40.639Z,20.50
2019-02-15T19:41:45.853Z,22.60
2019-02-15T19:43:51.068Z,22.63
2019-02-15T19:45:56.312Z,21.43
2019-02-15T19:48:01.334Z,19.43
2019-02-15T19:50:09.794Z,18.33
2019-02-15T19:52:14.540Z,19.87
2019-02-15T19:54:19.480Z,21.37
2019-02-15T19:56:24.341Z,20.13
2019-02-15T19:58:29.469Z,20.10
2019-02-15T20:00:35.596Z,18.60
2019-02-15T20:02:40.716Z,17.83
2019-02-15T20:04:45.710Z,16.93
2019-02-15T20:06:50.734Z,15.50
2019-02-15T20:08:55.940Z,18.30
2019-02-15T20:11:01.113Z,18.23
2019-02-15T20:13:06.150Z,19.23
2019-02-15T20:15:11.914Z,20.40
2019-02-15T20:17:16.852Z,19.43
2019-02-15T20:19:21.467Z,18.40
2019-02-15T20:21:26.494Z,17.13
2019-02-15T20:23:31.811Z,15.83
2019-02-15T20:25:36.255Z,15.63
2019-02-15T20:27:40.720Z,14.80
2019-02-15T20:29:49.427Z,16.20
2019-02-15T20:31:52.565Z,15.70
2019-02-15T20:33:57.739Z,14.93
2019-02-15T20:36:03.008Z,15.27
2019-02-15T20:38:08.811Z,15.53
2019-02-15T20:40:14.402Z,15.93
2019-02-15T20:42:19.882Z,14.00
2019-02-15T20:44:25.192Z,14.47
2019-02-15T20:46:30.469Z,15.07
2019-02-15T20:48:38.556Z,13.37
2019-02-15T20:50:43.721Z,11.50
2019-02-15T20:52:49.777Z,11.07
2019-02-15T20:54:55.076Z,11.13
2019-02-15T20:57:01.020Z,11.30
2019-02-15T20:59:05.782Z,11.57
2019-02-15T21:01:10.927Z,12.10
2019-02-15T21:03:17.812Z,13.53
2019-02-15T21:05:23.735Z,12.87
2019-02-15T21:07:28.540Z,12.70
2019-02-15T21:09:33.997Z,13.07
2019-02-15T21:11:39.434Z,8.03
2019-02-15T21:13:44.256Z,9.87
2019-02-15T21:15:49.697Z,10.83
2019-02-15T21:17:54.821Z,9.20
2019-02-15T21:20:07.430Z,12.00
2019-02-15T21:22:06.425Z,13.10
2019-02-15T21:24:11.359Z,12.63
2019-02-15T21:26:15.954Z,15.27
2019-02-15T21:28:21.425Z,14.47
2019-02-15T21:30:26.339Z,13.80
2019-02-15T21:32:32.188Z,14.70
2019-02-15T21:34:37.225Z,14.07
2019-02-15T21:36:41.908Z,15.97
2019-02-15T21:38:46.310Z,15.07
2019-02-15T21:40:51.090Z,15.40
2019-02-15T21:42:59.755Z,15.27
2019-02-15T21:45:07.736Z,14.43
2019-02-15T21:47:12.997Z,15.53
2019-02-15T21:49:18.283Z,13.17
2019-02-15T21:51:23.379Z,8.07
2019-02-15T21:53:27.783Z,7.63
2019-02-15T21:55:33.125Z,7.40
2019-02-15T21:57:38.069Z,7.30
2019-02-15T21:59:43.553Z,8.17
2019-02-15T22:01:48.432Z,7.83
2019-02-15T22:03:53.786Z,9.37
2019-02-15T22:05:59.065Z,9.20
2019-02-15T22:08:04.010Z,9.70
2019-02-15T22:10:09.510Z,10.93
2019-02-15T22:12:14.709Z,10.80
2019-02-15T22:14:19.551Z,10.60
2019-02-15T22:16:25.128Z,9.77
2019-02-15T22:18:30.281Z,8.97
2019-02-15T22:20:35.340Z,11.20
2019-02-15T22:22:40.244Z,11.50
2019-02-15T22:24:45.143Z,10.90
2019-02-15T22:26:49.994Z,12.10
2019-02-15T22:28:54.788Z,13.03
2019-02-15T22:30:59.394Z,13.30
2019-02-15T22:33:04.366Z,13.37
2019-02-15T22:35:09.274Z,13.57
2019-02-15T22:37:14.398Z,13.77
2019-02-15T22:39:19.104Z,16.30
2019-02-15T22:41:23.786Z,20.37
2019-02-15T22:43:28.633Z,15.53
2019-02-15T22:45:33.345Z,13.77
2019-02-15T22:47:38.083Z,13.07
2019-02-15T22:49:43.671Z,13.10
2019-02-15T22:51:48.544Z,14.83
2019-02-15T22:53:54.677Z,14.20
2019-02-15T22:55:59.269Z,13.90
2019-02-15T22:58:04.648Z,14.60
2019-02-15T23:00:13.221Z,14.90
2019-02-15T23:02:18.272Z,14.37
2019-02-15T23:04:22.698Z,15.37
2019-02-15T23:06:27.615Z,14.37
2019-02-15T23:08:32.307Z,14.50
2019-02-15T23:10:37.067Z,13.23
2019-02-15T23:12:41.560Z,14.27
2019-02-15T23:14:46.431Z,14.53
2019-02-15T23:16:51.165Z,13.30
2019-02-15T23:18:56.155Z,13.97
2019-02-15T23:21:00.803Z,12.53
2019-02-15T23:23:06.581Z,13.23
2019-02-15T23:25:11.836Z,11.90
2019-02-15T23:27:16.449Z,12.60
2019-02-15T23:29:21.690Z,11.80
2019-02-15T23:31:26.324Z,12.37
2019-02-15T23:33:31.208Z,11.67
2019-02-15T23:35:35.757Z,12.60
2019-02-15T23:37:42.990Z,12.70
2019-02-15T23:39:47.454Z,13.10
2019-02-15T23:41:52.224Z,11.80
2019-02-15T23:43:56.651Z,12.43
2019-02-15T23:46:12.962Z,11.70
2019-02-15T23:48:51.058Z,11.73
2019-02-15T23:50:55.448Z,11.40
2019-02-15T23:53:30.747Z,11.37
2019-02-15T23:55:35.034Z,11.07
2019-02-15T23:57:40.652Z,12.00
2019-02-15T23:59:53.606Z,10.83
